Terminal Aerodrome Forecast
Issued by NWS

Home | Current Version | Previous Version | Text Only | Print | Product List | Glossary On
Versions: 1 2 3 4 5 6 7 8 9 10 11 12 13 14 15 16 17 18 19 20 21 22 23 24
000
FTUS43 KGRB 210800 AAB
TAFMTW
TAF AMD
KMTW 210835Z 2109/2206 29010KT P6SM -SHRA BKN020
     FM211000 29005KT 5SM -SHRA BR OVC012
     FM211500 36010G20KT P6SM BKN012 BKN030
     FM211700 36012G18KT P6SM BKN030
     FM211900 36012G18KT P6SM SCT035
     FM212300 36006KT P6SM SKC=

USA.gov is the U.S. government's official web portal to all federal, state and local government web resources and services.